此METAR来自2022年8月16日 01:55. 最近的
罗盘
风向 的 风向 210°
风向 到 风: 17 kt, 阵阵 27 kt, 5 beaufort

添加一条跑道以查看侧风和逆风信息。

添置 跑道
0 1.000 2.000 3.000 4.000 5.000
SCT 2.000 ft
SCT 3.000 ft
METAR LIPI 152355Z 21017G27KT 6000 TSRA SCT020CB SCT030 20/20 Q1009

METAR Aviosuperficie AS77 - IT-0302

Aviosuperficie AS77是Mortegliano (UD),意大利中的小机场。 该领域的国际民航组织标志是IT-0302.

这份报告是针对2022年8月16日 01:55, 当地时间在Rivolto Air Base进行的。

机场观察

风向为210°,速度为17 kt。 已测得27 kt的阵风。

可见度为6 km。

有疏云,零星散落的云朵 积雨云在2.000 ft的高度 和 疏云,零星散落的云朵在3.000 ft的高度。 没有观察到天花板。

当前天气为雷暴 雨。 温度和风寒是20 °C。 露点为20 °C,相对湿度为100%。 海平面上的气压为1009 hPa (QNH)。

白天

今天,太阳从07:02升起,在18:52降落。 这适用于Aviosuperficie AS77,世界夏令时可能有所不同。 当地时间与世界标准时间之间的时差为+2 小时。 夏令时目前正在进行中。

公司介绍

我们没有关于这个机场的公司信息。

体会

到Vliegles.nl去找飞行课程,跳伞和其他飞行体验。 浏览页面,了解Aviosuperficie AS77附近所有可用的活动。 你也可以使用搜索功能来寻找你所在地附近的特定飞行课程、跳伞或其他飞行体验。

乌云

2.000 ft SCT 疏云,零星散落的云朵 积雨云
3.000 ft SCT 疏云,零星散落的云朵

温度 & 天气

天气 雷暴 雨
温度 20 °C
露点 20 °C
相对湿度 100%
Kp-index 1 (0-9)

白天

日出
06:07
中午
13:12
日落
20:17

小工具

你想在你的网站上有一个关于Aviosuperficie AS77的当前航空天气(METAR)的小部件吗?

</> 显示HTML代码

我们和第三方通过cookies跟踪您在我们网站上的上网行为。如果您继续,我们认为您同意我们的cookie政策。 了解更多